sensor_id;sensor_type;location;lat;lon;timestamp;P1;durP1;ratioP1;P2;durP2;ratioP2
20067;SDS011;10194;50.824;7.134;2024-02-23T00:00:46;55.53;;;46.50;;
20067;SDS011;10194;50.824;7.134;2024-02-23T00:03:11;54.87;;;46.60;;
20067;SDS011;10194;50.824;7.134;2024-02-23T00:05:37;54.93;;;46.63;;
20067;SDS011;10194;50.824;7.134;2024-02-23T00:08:03;54.63;;;46.33;;
20067;SDS011;10194;50.824;7.134;2024-02-23T00:10:29;54.30;;;46.33;;
20067;SDS011;10194;50.824;7.134;2024-02-23T00:12:55;54.53;;;46.50;;
20067;SDS011;10194;50.824;7.134;2024-02-23T00:15:21;54.57;;;46.90;;
20067;SDS011;10194;50.824;7.134;2024-02-23T00:17:46;54.37;;;46.67;;
20067;SDS011;10194;50.824;7.134;2024-02-23T00:20:12;54.63;;;46.70;;
20067;SDS011;10194;50.824;7.134;2024-02-23T00:22:40;55.80;;;47.63;;
20067;SDS011;10194;50.824;7.134;2024-02-23T00:25:05;54.40;;;46.57;;
20067;SDS011;10194;50.824;7.134;2024-02-23T00:27:31;54.83;;;46.87;;
20067;SDS011;10194;50.824;7.134;2024-02-23T00:29:57;54.43;;;45.97;;
20067;SDS011;10194;50.824;7.134;2024-02-23T00:32:23;54.10;;;45.90;;
20067;SDS011;10194;50.824;7.134;2024-02-23T00:34:48;55.90;;;46.83;;
20067;SDS011;10194;50.824;7.134;2024-02-23T00:37:14;55.10;;;46.63;;
20067;SDS011;10194;50.824;7.134;2024-02-23T00:39:40;53.70;;;45.57;;
20067;SDS011;10194;50.824;7.134;2024-02-23T00:42:06;55.50;;;46.63;;
20067;SDS011;10194;50.824;7.134;2024-02-23T00:44:32;56.97;;;47.03;;
20067;SDS011;10194;50.824;7.134;2024-02-23T00:46:58;54.10;;;45.97;;
20067;SDS011;10194;50.824;7.134;2024-02-23T00:49:26;55.50;;;48.03;;
20067;SDS011;10194;50.824;7.134;2024-02-23T00:51:53;53.77;;;45.83;;
20067;SDS011;10194;50.824;7.134;2024-02-23T00:54:20;56.83;;;48.00;;
20067;SDS011;10194;50.824;7.134;2024-02-23T00:56:46;53.87;;;46.40;;
20067;SDS011;10194;50.824;7.134;2024-02-23T00:59:12;54.37;;;46.07;;
20067;SDS011;10194;50.824;7.134;2024-02-23T01:01:38;54.13;;;46.47;;
20067;SDS011;10194;50.824;7.134;2024-02-23T01:04:04;54.27;;;47.10;;
20067;SDS011;10194;50.824;7.134;2024-02-23T01:06:30;54.77;;;46.83;;
20067;SDS011;10194;50.824;7.134;2024-02-23T01:08:55;54.50;;;46.40;;
20067;SDS011;10194;50.824;7.134;2024-02-23T01:11:21;54.83;;;46.90;;
20067;SDS011;10194;50.824;7.134;2024-02-23T01:13:47;54.80;;;46.83;;
20067;SDS011;10194;50.824;7.134;2024-02-23T01:16:12;53.47;;;45.90;;
20067;SDS011;10194;50.824;7.134;2024-02-23T01:18:38;53.97;;;46.43;;
20067;SDS011;10194;50.824;7.134;2024-02-23T01:21:04;54.00;;;46.63;;
20067;SDS011;10194;50.824;7.134;2024-02-23T01:23:30;53.80;;;46.30;;
20067;SDS011;10194;50.824;7.134;2024-02-23T01:25:55;54.37;;;46.47;;
20067;SDS011;10194;50.824;7.134;2024-02-23T01:28:23;53.30;;;45.97;;
20067;SDS011;10194;50.824;7.134;2024-02-23T01:30:49;53.93;;;46.30;;
20067;SDS011;10194;50.824;7.134;2024-02-23T01:33:15;53.57;;;45.90;;
20067;SDS011;10194;50.824;7.134;2024-02-23T01:35:41;53.57;;;45.87;;
20067;SDS011;10194;50.824;7.134;2024-02-23T01:38:07;53.27;;;45.77;;
20067;SDS011;10194;50.824;7.134;2024-02-23T01:40:32;53.20;;;45.67;;
20067;SDS011;10194;50.824;7.134;2024-02-23T01:43:04;55.23;;;46.70;;
20067;SDS011;10194;50.824;7.134;2024-02-23T01:45:31;53.33;;;45.80;;
20067;SDS011;10194;50.824;7.134;2024-02-23T01:48:00;53.73;;;46.23;;
20067;SDS011;10194;50.824;7.134;2024-02-23T01:50:27;53.70;;;46.10;;
20067;SDS011;10194;50.824;7.134;2024-02-23T01:52:53;58.70;;;47.33;;
20067;SDS011;10194;50.824;7.134;2024-02-23T01:55:22;54.93;;;46.77;;
20067;SDS011;10194;50.824;7.134;2024-02-23T01:57:48;53.73;;;45.87;;
20067;SDS011;10194;50.824;7.134;2024-02-23T02:00:15;53.80;;;45.93;;
20067;SDS011;10194;50.824;7.134;2024-02-23T02:02:43;53.90;;;46.23;;
20067;SDS011;10194;50.824;7.134;2024-02-23T02:05:10;53.87;;;46.30;;
20067;SDS011;10194;50.824;7.134;2024-02-23T02:07:36;54.10;;;46.23;;
20067;SDS011;10194;50.824;7.134;2024-02-23T02:10:03;53.63;;;46.27;;
20067;SDS011;10194;50.824;7.134;2024-02-23T02:12:32;56.20;;;47.73;;
20067;SDS011;10194;50.824;7.134;2024-02-23T02:14:57;53.27;;;46.10;;
20067;SDS011;10194;50.824;7.134;2024-02-23T02:17:26;55.43;;;47.27;;
20067;SDS011;10194;50.824;7.134;2024-02-23T02:19:52;54.20;;;46.80;;
20067;SDS011;10194;50.824;7.134;2024-02-23T02:22:18;53.43;;;46.33;;
20067;SDS011;10194;50.824;7.134;2024-02-23T02:24:44;57.63;;;48.67;;
20067;SDS011;10194;50.824;7.134;2024-02-23T02:27:12;54.13;;;47.03;;
20067;SDS011;10194;50.824;7.134;2024-02-23T02:29:37;54.57;;;47.20;;
20067;SDS011;10194;50.824;7.134;2024-02-23T02:32:03;54.43;;;46.90;;
20067;SDS011;10194;50.824;7.134;2024-02-23T02:34:29;54.03;;;46.50;;
20067;SDS011;10194;50.824;7.134;2024-02-23T02:36:55;53.67;;;46.87;;
20067;SDS011;10194;50.824;7.134;2024-02-23T02:39:21;54.20;;;47.00;;
20067;SDS011;10194;50.824;7.134;2024-02-23T02:41:50;53.73;;;46.70;;
20067;SDS011;10194;50.824;7.134;2024-02-23T02:44:16;54.60;;;47.13;;
20067;SDS011;10194;50.824;7.134;2024-02-23T02:46:42;53.87;;;46.87;;
20067;SDS011;10194;50.824;7.134;2024-02-23T02:49:07;53.97;;;46.83;;
20067;SDS011;10194;50.824;7.134;2024-02-23T02:51:33;54.40;;;47.50;;
20067;SDS011;10194;50.824;7.134;2024-02-23T02:54:00;54.10;;;47.07;;
20067;SDS011;10194;50.824;7.134;2024-02-23T02:56:26;54.07;;;47.17;;
20067;SDS011;10194;50.824;7.134;2024-02-23T02:58:51;54.50;;;47.63;;
20067;SDS011;10194;50.824;7.134;2024-02-23T03:01:17;54.00;;;46.87;;
20067;SDS011;10194;50.824;7.134;2024-02-23T03:03:43;54.10;;;47.30;;
20067;SDS011;10194;50.824;7.134;2024-02-23T03:06:08;53.93;;;46.93;;
20067;SDS011;10194;50.824;7.134;2024-02-23T03:08:34;56.50;;;49.07;;
20067;SDS011;10194;50.824;7.134;2024-02-23T03:11:00;53.93;;;46.90;;
20067;SDS011;10194;50.824;7.134;2024-02-23T03:13:26;53.37;;;46.83;;
20067;SDS011;10194;50.824;7.134;2024-02-23T03:15:51;55.33;;;48.07;;
20067;SDS011;10194;50.824;7.134;2024-02-23T03:18:17;55.20;;;47.97;;
20067;SDS011;10194;50.824;7.134;2024-02-23T03:20:43;55.13;;;47.53;;
20067;SDS011;10194;50.824;7.134;2024-02-23T03:23:09;54.10;;;47.13;;
20067;SDS011;10194;50.824;7.134;2024-02-23T03:25:36;54.57;;;48.40;;
20067;SDS011;10194;50.824;7.134;2024-02-23T03:28:02;53.90;;;47.60;;
20067;SDS011;10194;50.824;7.134;2024-02-23T03:30:27;55.83;;;48.20;;
20067;SDS011;10194;50.824;7.134;2024-02-23T03:32:53;55.27;;;48.37;;
20067;SDS011;10194;50.824;7.134;2024-02-23T03:35:19;55.03;;;48.93;;
20067;SDS011;10194;50.824;7.134;2024-02-23T03:37:45;57.30;;;51.07;;
20067;SDS011;10194;50.824;7.134;2024-02-23T03:40:10;56.70;;;50.60;;
20067;SDS011;10194;50.824;7.134;2024-02-23T03:42:37;59.60;;;53.07;;
20067;SDS011;10194;50.824;7.134;2024-02-23T03:45:04;55.90;;;49.80;;
20067;SDS011;10194;50.824;7.134;2024-02-23T03:47:30;58.60;;;52.30;;
20067;SDS011;10194;50.824;7.134;2024-02-23T03:49:56;59.30;;;53.00;;
20067;SDS011;10194;50.824;7.134;2024-02-23T03:52:22;58.67;;;52.43;;
20067;SDS011;10194;50.824;7.134;2024-02-23T03:54:47;62.67;;;56.07;;
20067;SDS011;10194;50.824;7.134;2024-02-23T03:57:14;59.60;;;53.37;;
20067;SDS011;10194;50.824;7.134;2024-02-23T03:59:40;60.43;;;54.13;;
20067;SDS011;10194;50.824;7.134;2024-02-23T04:02:20;62.87;;;56.47;;
20067;SDS011;10194;50.824;7.134;2024-02-23T04:04:46;66.80;;;59.83;;
20067;SDS011;10194;50.824;7.134;2024-02-23T04:07:12;62.87;;;56.47;;
20067;SDS011;10194;50.824;7.134;2024-02-23T04:09:38;62.50;;;56.10;;
20067;SDS011;10194;50.824;7.134;2024-02-23T04:12:04;62.33;;;55.90;;
20067;SDS011;10194;50.824;7.134;2024-02-23T04:14:32;63.17;;;56.47;;
20067;SDS011;10194;50.824;7.134;2024-02-23T04:17:01;60.53;;;54.23;;
20067;SDS011;10194;50.824;7.134;2024-02-23T04:19:30;62.87;;;56.40;;
20067;SDS011;10194;50.824;7.134;2024-02-23T04:21:55;61.77;;;55.37;;
20067;SDS011;10194;50.824;7.134;2024-02-23T04:24:21;63.27;;;56.80;;
20067;SDS011;10194;50.824;7.134;2024-02-23T04:26:47;62.77;;;56.33;;
20067;SDS011;10194;50.824;7.134;2024-02-23T04:29:13;64.20;;;57.67;;
20067;SDS011;10194;50.824;7.134;2024-02-23T04:31:38;62.63;;;56.23;;
20067;SDS011;10194;50.824;7.134;2024-02-23T04:34:04;60.50;;;54.20;;
20067;SDS011;10194;50.824;7.134;2024-02-23T04:36:30;59.97;;;53.67;;
20067;SDS011;10194;50.824;7.134;2024-02-23T04:38:56;60.57;;;54.07;;
20067;SDS011;10194;50.824;7.134;2024-02-23T04:41:22;56.50;;;50.40;;
20067;SDS011;10194;50.824;7.134;2024-02-23T04:43:47;58.20;;;51.90;;
20067;SDS011;10194;50.824;7.134;2024-02-23T04:46:14;56.60;;;50.50;;
20067;SDS011;10194;50.824;7.134;2024-02-23T04:48:40;56.93;;;50.73;;
20067;SDS011;10194;50.824;7.134;2024-02-23T04:51:06;57.70;;;51.50;;
20067;SDS011;10194;50.824;7.134;2024-02-23T04:53:38;58.43;;;52.23;;
20067;SDS011;10194;50.824;7.134;2024-02-23T04:56:04;59.73;;;53.40;;
20067;SDS011;10194;50.824;7.134;2024-02-23T04:58:30;57.77;;;51.63;;
20067;SDS011;10194;50.824;7.134;2024-02-23T05:00:56;57.53;;;51.33;;
20067;SDS011;10194;50.824;7.134;2024-02-23T05:03:22;56.27;;;50.17;;
20067;SDS011;10194;50.824;7.134;2024-02-23T05:05:48;56.90;;;50.80;;
20067;SDS011;10194;50.824;7.134;2024-02-23T05:08:18;57.70;;;51.50;;
20067;SDS011;10194;50.824;7.134;2024-02-23T05:10:49;56.50;;;50.40;;
20067;SDS011;10194;50.824;7.134;2024-02-23T05:13:17;60.30;;;54.00;;
20067;SDS011;10194;50.824;7.134;2024-02-23T05:15:44;63.07;;;56.67;;
20067;SDS011;10194;50.824;7.134;2024-02-23T05:18:09;65.23;;;58.67;;
20067;SDS011;10194;50.824;7.134;2024-02-23T05:20:35;61.40;;;55.10;;
20067;SDS011;10194;50.824;7.134;2024-02-23T05:23:01;61.63;;;55.27;;
20067;SDS011;10194;50.824;7.134;2024-02-23T05:25:27;64.60;;;57.90;;
20067;SDS011;10194;50.824;7.134;2024-02-23T05:27:53;66.37;;;59.77;;
20067;SDS011;10194;50.824;7.134;2024-02-23T05:30:18;64.33;;;57.83;;
20067;SDS011;10194;50.824;7.134;2024-02-23T05:32:44;66.17;;;59.50;;
20067;SDS011;10194;50.824;7.134;2024-02-23T05:35:11;68.17;;;61.40;;
20067;SDS011;10194;50.824;7.134;2024-02-23T05:37:37;70.53;;;63.67;;
20067;SDS011;10194;50.824;7.134;2024-02-23T05:40:04;69.43;;;62.60;;
20067;SDS011;10194;50.824;7.134;2024-02-23T05:42:37;68.77;;;61.90;;
20067;SDS011;10194;50.824;7.134;2024-02-23T05:45:03;66.77;;;60.13;;
20067;SDS011;10194;50.824;7.134;2024-02-23T05:47:30;68.10;;;61.23;;
20067;SDS011;10194;50.824;7.134;2024-02-23T05:49:56;65.40;;;58.83;;
20067;SDS011;10194;50.824;7.134;2024-02-23T05:52:22;67.83;;;61.10;;
20067;SDS011;10194;50.824;7.134;2024-02-23T05:54:47;68.60;;;61.60;;
20067;SDS011;10194;50.824;7.134;2024-02-23T05:57:13;66.07;;;59.50;;
20067;SDS011;10194;50.824;7.134;2024-02-23T05:59:39;65.13;;;58.60;;
20067;SDS011;10194;50.824;7.134;2024-02-23T06:02:05;65.57;;;58.97;;
20067;SDS011;10194;50.824;7.134;2024-02-23T06:04:31;66.53;;;59.93;;
20067;SDS011;10194;50.824;7.134;2024-02-23T06:06:57;66.47;;;59.93;;
20067;SDS011;10194;50.824;7.134;2024-02-23T06:09:22;68.47;;;61.73;;
20067;SDS011;10194;50.824;7.134;2024-02-23T06:11:48;67.53;;;60.87;;
20067;SDS011;10194;50.824;7.134;2024-02-23T06:14:14;68.67;;;61.87;;
20067;SDS011;10194;50.824;7.134;2024-02-23T06:16:39;67.30;;;60.63;;
20067;SDS011;10194;50.824;7.134;2024-02-23T06:19:05;66.37;;;59.73;;
20067;SDS011;10194;50.824;7.134;2024-02-23T06:21:31;66.03;;;59.47;;
20067;SDS011;10194;50.824;7.134;2024-02-23T06:23:57;66.77;;;60.10;;
20067;SDS011;10194;50.824;7.134;2024-02-23T06:26:23;68.73;;;61.97;;
20067;SDS011;10194;50.824;7.134;2024-02-23T06:28:49;66.20;;;59.60;;
20067;SDS011;10194;50.824;7.134;2024-02-23T06:31:15;63.97;;;57.53;;
20067;SDS011;10194;50.824;7.134;2024-02-23T06:33:41;63.40;;;56.97;;
20067;SDS011;10194;50.824;7.134;2024-02-23T06:36:07;62.80;;;56.37;;
20067;SDS011;10194;50.824;7.134;2024-02-23T06:38:34;63.30;;;56.83;;
20067;SDS011;10194;50.824;7.134;2024-02-23T06:41:00;62.17;;;55.70;;
20067;SDS011;10194;50.824;7.134;2024-02-23T06:43:26;61.23;;;54.83;;
20067;SDS011;10194;50.824;7.134;2024-02-23T06:45:52;57.60;;;51.43;;
20067;SDS011;10194;50.824;7.134;2024-02-23T06:48:18;58.93;;;52.63;;
20067;SDS011;10194;50.824;7.134;2024-02-23T06:50:43;56.50;;;50.37;;
20067;SDS011;10194;50.824;7.134;2024-02-23T06:53:09;56.80;;;50.70;;
20067;SDS011;10194;50.824;7.134;2024-02-23T06:55:35;57.27;;;51.03;;
20067;SDS011;10194;50.824;7.134;2024-02-23T06:58:01;55.70;;;49.60;;
20067;SDS011;10194;50.824;7.134;2024-02-23T07:00:29;56.60;;;50.50;;
20067;SDS011;10194;50.824;7.134;2024-02-23T07:02:55;58.07;;;51.87;;
20067;SDS011;10194;50.824;7.134;2024-02-23T07:05:24;58.03;;;51.83;;
20067;SDS011;10194;50.824;7.134;2024-02-23T07:07:50;59.43;;;53.00;;
20067;SDS011;10194;50.824;7.134;2024-02-23T07:10:16;59.80;;;53.50;;
20067;SDS011;10194;50.824;7.134;2024-02-23T07:12:43;58.73;;;52.43;;
20067;SDS011;10194;50.824;7.134;2024-02-23T07:15:09;57.73;;;51.53;;
20067;SDS011;10194;50.824;7.134;2024-02-23T07:17:35;55.73;;;49.63;;
20067;SDS011;10194;50.824;7.134;2024-02-23T07:20:01;55.50;;;49.40;;
20067;SDS011;10194;50.824;7.134;2024-02-23T07:22:32;57.00;;;50.63;;
20067;SDS011;10194;50.824;7.134;2024-02-23T07:24:59;56.50;;;50.10;;
20067;SDS011;10194;50.824;7.134;2024-02-23T07:27:26;54.90;;;48.90;;
20067;SDS011;10194;50.824;7.134;2024-02-23T07:29:52;54.50;;;48.10;;
20067;SDS011;10194;50.824;7.134;2024-02-23T07:32:18;55.30;;;48.03;;
20067;SDS011;10194;50.824;7.134;2024-02-23T07:34:43;59.53;;;49.90;;
20067;SDS011;10194;50.824;7.134;2024-02-23T07:37:09;55.33;;;47.60;;
20067;SDS011;10194;50.824;7.134;2024-02-23T07:39:35;56.30;;;47.80;;
20067;SDS011;10194;50.824;7.134;2024-02-23T07:42:01;56.50;;;47.67;;
20067;SDS011;10194;50.824;7.134;2024-02-23T07:44:27;56.33;;;47.63;;
20067;SDS011;10194;50.824;7.134;2024-02-23T07:46:53;57.47;;;48.37;;
20067;SDS011;10194;50.824;7.134;2024-02-23T07:49:20;57.13;;;48.10;;
20067;SDS011;10194;50.824;7.134;2024-02-23T07:51:47;56.93;;;47.93;;
20067;SDS011;10194;50.824;7.134;2024-02-23T07:54:13;56.60;;;47.73;;
20067;SDS011;10194;50.824;7.134;2024-02-23T07:56:39;56.17;;;47.53;;
20067;SDS011;10194;50.824;7.134;2024-02-23T07:59:05;55.83;;;47.20;;
20067;SDS011;10194;50.824;7.134;2024-02-23T08:01:30;56.17;;;47.43;;
20067;SDS011;10194;50.824;7.134;2024-02-23T08:03:59;55.53;;;47.13;;
20067;SDS011;10194;50.824;7.134;2024-02-23T08:06:25;55.17;;;46.87;;
20067;SDS011;10194;50.824;7.134;2024-02-23T08:08:51;55.83;;;47.23;;
20067;SDS011;10194;50.824;7.134;2024-02-23T08:11:18;55.10;;;46.70;;
20067;SDS011;10194;50.824;7.134;2024-02-23T08:13:44;56.30;;;47.20;;
20067;SDS011;10194;50.824;7.134;2024-02-23T08:16:10;55.87;;;46.90;;
20067;SDS011;10194;50.824;7.134;2024-02-23T08:18:36;59.57;;;48.63;;
20067;SDS011;10194;50.824;7.134;2024-02-23T08:21:02;55.30;;;46.77;;
20067;SDS011;10194;50.824;7.134;2024-02-23T08:23:29;55.23;;;46.60;;
20067;SDS011;10194;50.824;7.134;2024-02-23T08:25:55;55.30;;;46.80;;
20067;SDS011;10194;50.824;7.134;2024-02-23T08:28:25;55.47;;;46.73;;
20067;SDS011;10194;50.824;7.134;2024-02-23T08:30:51;55.70;;;47.03;;
20067;SDS011;10194;50.824;7.134;2024-02-23T08:33:18;55.70;;;46.90;;
20067;SDS011;10194;50.824;7.134;2024-02-23T08:35:44;56.77;;;47.37;;
20067;SDS011;10194;50.824;7.134;2024-02-23T08:38:10;55.47;;;46.90;;
20067;SDS011;10194;50.824;7.134;2024-02-23T08:40:36;57.43;;;48.10;;
20067;SDS011;10194;50.824;7.134;2024-02-23T08:43:02;55.27;;;46.80;;
20067;SDS011;10194;50.824;7.134;2024-02-23T08:45:28;56.23;;;47.33;;
20067;SDS011;10194;50.824;7.134;2024-02-23T08:47:53;64.13;;;51.80;;
20067;SDS011;10194;50.824;7.134;2024-02-23T08:50:19;57.00;;;47.63;;
20067;SDS011;10194;50.824;7.134;2024-02-23T08:52:45;57.27;;;48.00;;
20067;SDS011;10194;50.824;7.134;2024-02-23T08:55:11;57.53;;;47.97;;
20067;SDS011;10194;50.824;7.134;2024-02-23T08:57:37;59.00;;;49.13;;
20067;SDS011;10194;50.824;7.134;2024-02-23T09:00:03;55.77;;;47.27;;
20067;SDS011;10194;50.824;7.134;2024-02-23T09:02:31;56.93;;;48.03;;
20067;SDS011;10194;50.824;7.134;2024-02-23T09:05:00;55.93;;;47.67;;
20067;SDS011;10194;50.824;7.134;2024-02-23T09:07:26;56.20;;;47.70;;
20067;SDS011;10194;50.824;7.134;2024-02-23T09:09:52;57.63;;;48.63;;
20067;SDS011;10194;50.824;7.134;2024-02-23T09:12:19;63.23;;;50.97;;
20067;SDS011;10194;50.824;7.134;2024-02-23T09:14:45;62.30;;;50.80;;
20067;SDS011;10194;50.824;7.134;2024-02-23T09:17:11;58.83;;;48.80;;
20067;SDS011;10194;50.824;7.134;2024-02-23T09:19:37;56.43;;;47.83;;
20067;SDS011;10194;50.824;7.134;2024-02-23T09:22:04;56.10;;;48.03;;
20067;SDS011;10194;50.824;7.134;2024-02-23T09:24:30;56.47;;;47.70;;
20067;SDS011;10194;50.824;7.134;2024-02-23T09:26:56;56.23;;;47.87;;
20067;SDS011;10194;50.824;7.134;2024-02-23T09:29:23;56.93;;;47.90;;
20067;SDS011;10194;50.824;7.134;2024-02-23T09:31:48;56.27;;;47.70;;
20067;SDS011;10194;50.824;7.134;2024-02-23T09:34:15;56.13;;;47.93;;
20067;SDS011;10194;50.824;7.134;2024-02-23T09:36:40;57.40;;;48.40;;
20067;SDS011;10194;50.824;7.134;2024-02-23T09:39:06;57.73;;;48.27;;
20067;SDS011;10194;50.824;7.134;2024-02-23T09:41:32;56.23;;;47.77;;
20067;SDS011;10194;50.824;7.134;2024-02-23T09:44:00;55.73;;;47.43;;
20067;SDS011;10194;50.824;7.134;2024-02-23T09:46:27;56.83;;;48.33;;
20067;SDS011;10194;50.824;7.134;2024-02-23T09:48:53;56.17;;;47.50;;
20067;SDS011;10194;50.824;7.134;2024-02-23T09:51:21;62.60;;;50.33;;
20067;SDS011;10194;50.824;7.134;2024-02-23T09:53:49;57.50;;;48.67;;
20067;SDS011;10194;50.824;7.134;2024-02-23T09:56:36;58.63;;;49.07;;
20067;SDS011;10194;50.824;7.134;2024-02-23T09:59:02;57.93;;;48.90;;
20067;SDS011;10194;50.824;7.134;2024-02-23T10:01:30;56.77;;;48.07;;
20067;SDS011;10194;50.824;7.134;2024-02-23T10:03:59;56.43;;;47.93;;
20067;SDS011;10194;50.824;7.134;2024-02-23T10:06:28;60.33;;;49.27;;
20067;SDS011;10194;50.824;7.134;2024-02-23T10:08:54;56.83;;;48.37;;
20067;SDS011;10194;50.824;7.134;2024-02-23T10:11:21;56.97;;;48.50;;
20067;SDS011;10194;50.824;7.134;2024-02-23T10:13:50;60.13;;;50.30;;
20067;SDS011;10194;50.824;7.134;2024-02-23T10:16:19;57.90;;;48.50;;
20067;SDS011;10194;50.824;7.134;2024-02-23T10:18:49;56.93;;;48.07;;
20067;SDS011;10194;50.824;7.134;2024-02-23T10:21:16;61.60;;;49.93;;
20067;SDS011;10194;50.824;7.134;2024-02-23T10:23:46;61.30;;;50.13;;
20067;SDS011;10194;50.824;7.134;2024-02-23T10:26:15;57.17;;;48.70;;
20067;SDS011;10194;50.824;7.134;2024-02-23T10:28:47;58.57;;;48.87;;
20067;SDS011;10194;50.824;7.134;2024-02-23T10:31:13;58.90;;;49.30;;
20067;SDS011;10194;50.824;7.134;2024-02-23T10:33:40;57.97;;;48.93;;
20067;SDS011;10194;50.824;7.134;2024-02-23T10:36:06;61.23;;;50.03;;
20067;SDS011;10194;50.824;7.134;2024-02-23T10:38:37;59.10;;;49.50;;
20067;SDS011;10194;50.824;7.134;2024-02-23T10:41:07;57.37;;;49.07;;
20067;SDS011;10194;50.824;7.134;2024-02-23T10:43:48;56.77;;;48.13;;
20067;SDS011;10194;50.824;7.134;2024-02-23T10:46:14;56.97;;;48.47;;
20067;SDS011;10194;50.824;7.134;2024-02-23T10:48:43;59.83;;;49.77;;
20067;SDS011;10194;50.824;7.134;2024-02-23T10:51:11;59.93;;;49.97;;
20067;SDS011;10194;50.824;7.134;2024-02-23T10:53:39;61.43;;;50.00;;
20067;SDS011;10194;50.824;7.134;2024-02-23T10:56:05;62.80;;;51.00;;
20067;SDS011;10194;50.824;7.134;2024-02-23T10:58:32;62.37;;;50.17;;
20067;SDS011;10194;50.824;7.134;2024-02-23T11:01:06;56.63;;;47.90;;
20067;SDS011;10194;50.824;7.134;2024-02-23T11:03:34;58.07;;;49.07;;
20067;SDS011;10194;50.824;7.134;2024-02-23T11:06:05;61.63;;;50.27;;
20067;SDS011;10194;50.824;7.134;2024-02-23T11:08:32;60.77;;;50.07;;
20067;SDS011;10194;50.824;7.134;2024-02-23T11:11:07;57.57;;;48.60;;
20067;SDS011;10194;50.824;7.134;2024-02-23T11:13:34;57.30;;;48.47;;
20067;SDS011;10194;50.824;7.134;2024-02-23T11:16:05;62.33;;;50.30;;
20067;SDS011;10194;50.824;7.134;2024-02-23T11:18:34;58.13;;;48.93;;
20067;SDS011;10194;50.824;7.134;2024-02-23T11:21:04;58.13;;;49.20;;
20067;SDS011;10194;50.824;7.134;2024-02-23T11:26:17;57.97;;;49.00;;
20067;SDS011;10194;50.824;7.134;2024-02-23T11:28:50;59.80;;;49.47;;
20067;SDS011;10194;50.824;7.134;2024-02-23T11:31:21;58.67;;;49.40;;
20067;SDS011;10194;50.824;7.134;2024-02-23T11:33:53;58.23;;;49.07;;
20067;SDS011;10194;50.824;7.134;2024-02-23T11:39:01;60.70;;;50.50;;
20067;SDS011;10194;50.824;7.134;2024-02-23T11:41:28;58.57;;;49.10;;
20067;SDS011;10194;50.824;7.134;2024-02-23T11:43:54;65.70;;;52.13;;
20067;SDS011;10194;50.824;7.134;2024-02-23T11:46:23;58.53;;;49.57;;
20067;SDS011;10194;50.824;7.134;2024-02-23T11:48:49;58.37;;;49.30;;
20067;SDS011;10194;50.824;7.134;2024-02-23T11:51:22;64.17;;;51.97;;
20067;SDS011;10194;50.824;7.134;2024-02-23T11:53:49;59.10;;;49.73;;
20067;SDS011;10194;50.824;7.134;2024-02-23T11:56:15;61.67;;;50.77;;
20067;SDS011;10194;50.824;7.134;2024-02-23T11:58:43;59.23;;;49.73;;
20067;SDS011;10194;50.824;7.134;2024-02-23T12:01:11;59.33;;;50.00;;
20067;SDS011;10194;50.824;7.134;2024-02-23T12:03:37;59.17;;;49.90;;
20067;SDS011;10194;50.824;7.134;2024-02-23T12:06:04;65.10;;;52.57;;
20067;SDS011;10194;50.824;7.134;2024-02-23T12:08:32;65.53;;;54.37;;
20067;SDS011;10194;50.824;7.134;2024-02-23T12:11:07;59.50;;;50.07;;
20067;SDS011;10194;50.824;7.134;2024-02-23T12:13:34;60.07;;;50.03;;
20067;SDS011;10194;50.824;7.134;2024-02-23T12:16:04;63.43;;;52.20;;
20067;SDS011;10194;50.824;7.134;2024-02-23T12:18:33;66.70;;;52.75;;
20067;SDS011;10194;50.824;7.134;2024-02-23T12:21:07;58.67;;;49.10;;
20067;SDS011;10194;50.824;7.134;2024-02-23T12:26:13;65.30;;;51.43;;
20067;SDS011;10194;50.824;7.134;2024-02-23T12:28:41;58.17;;;48.67;;
20067;SDS011;10194;50.824;7.134;2024-02-23T12:31:07;57.93;;;48.70;;
20067;SDS011;10194;50.824;7.134;2024-02-23T12:33:40;59.30;;;49.30;;
20067;SDS011;10194;50.824;7.134;2024-02-23T12:36:06;63.37;;;50.73;;
20067;SDS011;10194;50.824;7.134;2024-02-23T12:38:33;58.80;;;48.87;;
20067;SDS011;10194;50.824;7.134;2024-02-23T12:41:00;58.17;;;48.77;;
20067;SDS011;10194;50.824;7.134;2024-02-23T12:43:27;58.23;;;48.83;;
20067;SDS011;10194;50.824;7.134;2024-02-23T12:45:54;59.00;;;49.07;;
20067;SDS011;10194;50.824;7.134;2024-02-23T12:48:22;57.80;;;48.37;;
20067;SDS011;10194;50.824;7.134;2024-02-23T12:50:48;63.70;;;50.87;;
20067;SDS011;10194;50.824;7.134;2024-02-23T12:53:29;57.00;;;48.00;;
20067;SDS011;10194;50.824;7.134;2024-02-23T12:56:04;61.57;;;49.87;;
20067;SDS011;10194;50.824;7.134;2024-02-23T12:58:33;58.33;;;48.50;;
20067;SDS011;10194;50.824;7.134;2024-02-23T13:01:06;57.07;;;47.97;;
20067;SDS011;10194;50.824;7.134;2024-02-23T13:03:33;57.70;;;48.27;;
20067;SDS011;10194;50.824;7.134;2024-02-23T13:06:00;59.87;;;49.17;;
20067;SDS011;10194;50.824;7.134;2024-02-23T13:08:27;57.23;;;48.20;;
20067;SDS011;10194;50.824;7.134;2024-02-23T13:10:54;58.00;;;48.67;;
20067;SDS011;10194;50.824;7.134;2024-02-23T13:13:22;63.40;;;50.43;;
20067;SDS011;10194;50.824;7.134;2024-02-23T13:15:48;57.73;;;48.40;;
20067;SDS011;10194;50.824;7.134;2024-02-23T13:18:15;60.47;;;49.37;;
20067;SDS011;10194;50.824;7.134;2024-02-23T13:20:41;60.13;;;50.07;;
20067;SDS011;10194;50.824;7.134;2024-02-23T13:23:08;57.90;;;48.90;;
20067;SDS011;10194;50.824;7.134;2024-02-23T13:25:35;59.20;;;49.67;;
20067;SDS011;10194;50.824;7.134;2024-02-23T13:28:02;60.67;;;49.97;;
20067;SDS011;10194;50.824;7.134;2024-02-23T13:30:29;60.67;;;50.03;;
20067;SDS011;10194;50.824;7.134;2024-02-23T13:32:55;64.93;;;51.67;;
20067;SDS011;10194;50.824;7.134;2024-02-23T13:35:21;60.23;;;50.53;;
20067;SDS011;10194;50.824;7.134;2024-02-23T13:37:47;63.73;;;51.57;;
20067;SDS011;10194;50.824;7.134;2024-02-23T13:40:14;62.27;;;51.23;;
20067;SDS011;10194;50.824;7.134;2024-02-23T13:42:40;59.37;;;49.97;;
20067;SDS011;10194;50.824;7.134;2024-02-23T13:45:07;60.37;;;50.33;;
20067;SDS011;10194;50.824;7.134;2024-02-23T13:47:36;62.47;;;51.70;;
20067;SDS011;10194;50.824;7.134;2024-02-23T13:50:02;60.10;;;49.70;;
20067;SDS011;10194;50.824;7.134;2024-02-23T13:52:28;58.90;;;49.20;;
20067;SDS011;10194;50.824;7.134;2024-02-23T13:54:55;61.87;;;50.80;;
20067;SDS011;10194;50.824;7.134;2024-02-23T13:57:21;57.23;;;48.23;;
20067;SDS011;10194;50.824;7.134;2024-02-23T13:59:47;61.27;;;50.13;;
20067;SDS011;10194;50.824;7.134;2024-02-23T14:02:12;60.97;;;49.90;;
20067;SDS011;10194;50.824;7.134;2024-02-23T14:04:39;61.90;;;50.63;;
20067;SDS011;10194;50.824;7.134;2024-02-23T14:07:05;57.73;;;48.40;;
20067;SDS011;10194;50.824;7.134;2024-02-23T14:09:32;57.67;;;48.43;;
20067;SDS011;10194;50.824;7.134;2024-02-23T14:11:58;59.47;;;49.47;;
20067;SDS011;10194;50.824;7.134;2024-02-23T14:14:24;64.80;;;52.13;;
20067;SDS011;10194;50.824;7.134;2024-02-23T14:16:50;58.90;;;49.10;;
20067;SDS011;10194;50.824;7.134;2024-02-23T14:19:16;57.60;;;48.43;;
20067;SDS011;10194;50.824;7.134;2024-02-23T14:21:42;58.97;;;49.17;;
20067;SDS011;10194;50.824;7.134;2024-02-23T14:24:08;59.77;;;49.33;;
20067;SDS011;10194;50.824;7.134;2024-02-23T14:26:34;63.00;;;50.50;;